Time;durP1;ratioP1;P1;durP2;ratioP2;P2;SDS_P1;SDS_P2;PMS_P1;PMS_P2;Temp;Humidity;BMP_temperature;BMP_pressure;BME280_temperature;BME280_humidity;BME280_pressure;Samples;Min_cycle;Max_cycle;Signal;HPM_P1;HPM_P2
2023/09/27 00:00:32;;;;;;;16.30;6.70;;;;;;;-141.97;63.70;47594.03;5009829;28;20620;-87
2023/09/27 00:02:58;;;;;;;15.57;6.77;;;;;;;-141.97;63.73;47605.56;5011936;28;20165;-87
2023/09/27 00:05:25;;;;;;;15.97;7.20;;;;;;;-141.97;63.81;47780.47;5011197;28;20197;-88
2023/09/27 00:07:53;;;;;;;17.47;7.03;;;;;;;-141.97;64.42;47524.84;5009984;28;20600;-88
2023/09/27 00:10:18;;;;;;;17.70;6.90;;;;;;;-141.97;64.51;47565.22;5010039;28;20235;-88
2023/09/27 00:12:48;;;;;;;16.40;7.33;;;;;;;-141.97;64.78;47569.06;5010448;28;20657;-87
2023/09/27 00:15:14;;;;;;;14.67;7.10;;;;;;;-141.97;64.47;47715.13;5022704;28;20200;-86
2023/09/27 00:17:40;;;;;;;14.30;6.97;;;;;;;-141.97;64.34;47538.28;5033232;28;20214;-85
2023/09/27 00:20:11;;;;;;;13.47;7.07;;;;;;;-141.97;64.51;47561.38;5035808;28;20175;-86
2023/09/27 00:22:37;;;;;;;12.80;6.70;;;;;;;-141.97;64.70;47549.84;5015127;28;20638;-86
2023/09/27 00:25:04;;;;;;;17.07;7.57;;;;;;;-141.97;64.78;47576.75;5015331;28;20185;-85
2023/09/27 00:27:30;;;;;;;15.90;7.07;;;;;;;-141.97;64.75;47526.75;5020623;28;20253;-85
2023/09/27 00:29:55;;;;;;;14.87;6.77;;;;;;;-141.97;64.57;47742.03;5020761;28;20205;-85
2023/09/27 00:32:21;;;;;;;18.60;7.37;;;;;;;-141.97;65.23;47519.06;5018412;28;20284;-85
2023/09/27 00:34:46;;;;;;;16.33;6.80;;;;;;;-141.97;67.06;47496.00;5019064;28;20194;-85
2023/09/27 00:37:11;;;;;;;15.80;7.60;;;;;;;-141.97;67.81;47644.00;5015061;28;20258;-86
2023/09/27 00:39:39;;;;;;;13.63;7.10;;;;;;;-141.97;68.16;47757.41;5014914;28;20178;-87
2023/09/27 00:42:04;;;;;;;15.43;7.70;;;;;;;-141.97;69.40;47532.53;5015122;28;20155;-87
2023/09/27 00:44:30;;;;;;;14.33;7.30;;;;;;;-141.97;69.20;47665.16;5014753;28;20174;-86
2023/09/27 00:46:55;;;;;;;14.63;7.30;;;;;;;-141.97;69.58;47711.28;5030045;28;20236;-87
2023/09/27 00:49:21;;;;;;;14.67;7.17;;;;;;;-141.97;69.24;47424.91;5029679;28;20221;-87
2023/09/27 00:51:47;;;;;;;11.83;6.80;;;;;;;-141.97;69.44;47501.78;5014484;28;20175;-87
2023/09/27 00:54:13;;;;;;;13.47;6.90;;;;;;;-141.97;69.05;47326.88;5014349;28;20221;-87
2023/09/27 00:56:39;;;;;;;14.20;7.03;;;;;;;-141.97;69.15;47461.41;5014326;28;20627;-87
2023/09/27 00:59:07;;;;;;;14.47;7.27;;;;;;;-141.97;69.90;47680.53;5013519;28;20175;-86
2023/09/27 01:01:32;;;;;;;18.70;7.40;;;;;;;-141.97;70.42;47595.97;5014617;28;20722;-87
2023/09/27 01:03:58;;;;;;;16.30;7.57;;;;;;;-141.97;69.65;47634.41;5014737;28;20211;-87
2023/09/27 01:06:23;;;;;;;17.07;7.30;;;;;;;-141.97;70.28;47565.22;5013158;28;20175;-88
2023/09/27 01:08:49;;;;;;;15.47;7.07;;;;;;;-141.97;70.79;47580.59;5013651;28;20302;-87
2023/09/27 01:11:15;;;;;;;17.50;7.13;;;;;;;-141.97;70.76;47363.41;5014436;28;20195;-86
2023/09/27 01:13:40;;;;;;;14.67;7.00;;;;;;;-141.97;70.57;47582.50;5014152;28;20301;-86
2023/09/27 01:16:05;;;;;;;14.20;7.03;;;;;;;-141.97;70.74;47624.78;5014273;28;20170;-88
2023/09/27 01:18:31;;;;;;;18.30;7.43;;;;;;;-141.97;70.44;47461.41;5012731;28;20288;-87
2023/09/27 01:20:56;;;;;;;15.40;7.37;;;;;;;-141.97;70.62;47590.19;5014267;28;20162;-87
2023/09/27 01:23:22;;;;;;;20.33;7.93;;;;;;;-141.97;70.92;47751.66;5012702;28;20563;-87
2023/09/27 01:25:50;;;;;;;21.53;8.60;;;;;;;-141.97;71.66;47515.22;5013704;28;20193;-87
2023/09/27 01:28:20;;;;;;;21.97;8.97;;;;;;;-141.97;71.25;47584.44;5013342;28;20640;-88
2023/09/27 01:30:47;;;;;;;18.50;8.63;;;;;;;-141.97;70.96;47438.34;5013470;28;20177;-86
2023/09/27 01:33:13;;;;;;;16.20;8.67;;;;;;;-141.97;71.01;47642.09;5014102;28;20187;-87
2023/09/27 01:35:40;;;;;;;16.83;8.87;;;;;;;-141.97;70.60;47484.47;5012522;28;20248;-87
2023/09/27 01:38:07;;;;;;;18.10;8.90;;;;;;;-141.97;70.03;47594.03;5013862;28;20556;-87
2023/09/27 01:40:37;;;;;;;16.40;8.67;;;;;;;-141.97;69.54;47457.56;5012299;28;20178;-87
2023/09/27 01:43:04;;;;;;;19.87;10.30;;;;;;;-141.97;69.20;47486.41;5013509;28;20170;-87
2023/09/27 01:45:30;;;;;;;27.27;9.67;;;;;;;-141.97;68.87;47480.63;5012041;28;20175;-87
2023/09/27 01:48:00;;;;;;;19.73;10.33;;;;;;;-141.97;69.01;47745.88;5013379;28;20167;-87
2023/09/27 01:50:26;;;;;;;26.00;10.17;;;;;;;-141.97;68.74;47430.66;5011957;28;20183;-88
2023/09/27 01:52:52;;;;;;;21.63;10.63;;;;;;;-141.97;68.65;47469.09;5013519;28;20293;-88
2023/09/27 01:55:17;;;;;;;21.40;10.67;;;;;;;-141.97;69.07;47440.28;5015286;28;20175;-87
2023/09/27 01:57:45;;;;;;;25.07;10.20;;;;;;;-141.97;68.65;47446.03;5012917;28;20179;-87
2023/09/27 02:00:14;;;;;;;25.73;10.23;;;;;;;-141.97;68.56;47509.47;5012608;28;20241;-86
2023/09/27 02:02:49;;;;;;;22.17;10.17;;;;;;;-141.97;68.47;47567.13;5019016;28;20250;-82
2023/09/27 02:05:15;;;;;;;21.83;10.73;;;;;;;-141.97;68.62;47457.56;5036750;28;20205;-84
2023/09/27 02:07:41;;;;;;;18.67;10.77;;;;;;;-141.97;68.71;47576.75;5028860;28;20171;-85
2023/09/27 02:10:10;;;;;;;21.10;10.87;;;;;;;-141.97;68.12;47546.00;5022795;28;20194;-87
2023/09/27 02:12:40;;;;;;;21.03;10.47;;;;;;;-141.97;68.24;47592.13;5034081;28;20288;-87
2023/09/27 02:15:07;;;;;;;23.23;10.73;;;;;;;-141.97;68.16;47551.75;5033842;28;20163;-83
2023/09/27 02:17:33;;;;;;;27.50;11.83;;;;;;;-141.97;68.48;47492.16;5052798;28;20253;-87
2023/09/27 02:19:58;;;;;;;22.07;11.53;;;;;;;-141.97;68.10;47613.25;5014139;28;20246;-88
2023/09/27 02:22:24;;;;;;;23.17;11.20;;;;;;;-141.97;68.07;47594.03;5013514;28;20194;-88
2023/09/27 02:24:49;;;;;;;21.27;10.10;;;;;;;-141.97;68.44;47547.91;5011706;28;20206;-87
2023/09/27 02:27:15;;;;;;;21.60;10.27;;;;;;;-141.97;68.39;47561.38;5011949;28;20499;-86
2023/09/27 02:29:42;;;;;;;24.83;10.77;;;;;;;-141.97;68.09;47492.16;5011957;28;20534;-87
2023/09/27 02:32:07;;;;;;;22.87;10.40;;;;;;;-141.97;68.76;47530.59;5027970;28;20197;-87
2023/09/27 02:34:36;;;;;;;17.93;10.03;;;;;;;-141.97;68.65;47755.50;5012966;28;20257;-87
2023/09/27 02:37:02;;;;;;;24.13;9.73;;;;;;;-141.97;68.86;47592.13;5036492;28;20171;-86
2023/09/27 02:39:30;;;;;;;18.23;10.50;;;;;;;-141.97;68.97;47565.22;5038112;28;20167;-87
2023/09/27 02:42:00;;;;;;;21.70;9.63;;;;;;;-141.97;69.22;47615.19;5038915;28;20171;-87
2023/09/27 02:44:25;;;;;;;26.77;10.37;;;;;;;-141.97;69.33;47586.34;5021503;28;20170;-88
2023/09/27 02:46:55;;;;;;;22.57;9.70;;;;;;;-141.97;69.76;47547.91;5018548;28;20235;-88
2023/09/27 02:49:20;;;;;;;18.60;10.20;;;;;;;-141.97;70.87;47611.34;5013375;28;20166;-85
2023/09/27 02:51:49;;;;;;;20.77;10.30;;;;;;;-141.97;71.48;47551.75;5011389;28;20170;-84
2023/09/27 02:54:15;;;;;;;24.30;10.43;;;;;;;-141.97;72.27;47492.16;5012887;28;20178;-86
2023/09/27 02:56:43;;;;;;;17.73;9.73;;;;;;;-141.97;72.48;47505.63;5019966;28;20171;-85
2023/09/27 02:59:12;;;;;;;20.87;10.10;;;;;;;-141.97;71.87;47438.34;5023177;28;20159;-85
2023/09/27 03:01:41;;;;;;;20.17;10.40;;;;;;;-141.97;72.27;47634.41;5012772;28;20623;-86
2023/09/27 03:04:08;;;;;;;20.67;10.10;;;;;;;-141.97;72.23;47563.28;5010965;28;20627;-87
2023/09/27 03:06:35;;;;;;;18.50;10.27;;;;;;;-141.97;71.54;47597.88;5013661;28;20158;-86
2023/09/27 03:09:01;;;;;;;23.37;10.40;;;;;;;-141.97;71.48;47538.28;5013590;28;20171;-86
2023/09/27 03:11:27;;;;;;;21.40;10.00;;;;;;;-141.97;71.26;47409.53;5030624;28;20189;-87
2023/09/27 03:13:52;;;;;;;19.63;9.60;;;;;;;-141.97;71.42;47669.00;5012952;28;20289;-87
2023/09/27 03:16:18;;;;;;;22.23;10.33;;;;;;;-141.97;71.78;47503.69;5012686;28;20201;-87
2023/09/27 03:18:43;;;;;;;19.77;9.80;;;;;;;-141.97;71.30;47670.91;5011440;28;20583;-85
2023/09/27 03:21:09;;;;;;;23.90;10.00;;;;;;;-141.97;71.51;47611.34;5021003;28;20676;-86
2023/09/27 03:23:35;;;;;;;23.10;10.10;;;;;;;-141.97;72.28;47436.44;5029793;28;20258;-87
2023/09/27 03:26:00;;;;;;;18.70;9.97;;;;;;;-141.97;73.26;47453.72;5010268;28;20174;-87
2023/09/27 03:28:26;;;;;;;21.07;10.50;;;;;;;-141.97;73.41;47522.91;5014170;28;20198;-87
2023/09/27 03:30:51;;;;;;;18.13;10.50;;;;;;;-141.97;73.50;47734.34;5028562;28;20174;-87
2023/09/27 03:33:17;;;;;;;27.33;11.00;;;;;;;-141.97;73.82;47569.06;5011771;28;20214;-87
2023/09/27 03:35:43;;;;;;;23.57;11.37;;;;;;;-141.97;73.42;47694.00;5011333;28;20194;-86
2023/09/27 03:38:08;;;;;;;26.40;11.83;;;;;;;-141.97;73.16;47765.09;5011584;28;20658;-86
2023/09/27 03:40:34;;;;;;;27.77;11.47;;;;;;;-141.97;72.88;47722.81;5026666;28;20171;-88
2023/09/27 03:42:59;;;;;;;27.40;12.23;;;;;;;-141.97;72.64;47471.03;5011435;28;20167;-87
2023/09/27 03:45:25;;;;;;;25.27;10.90;;;;;;;-141.97;73.48;47655.53;5026733;28;20217;-86
2023/09/27 03:47:50;;;;;;;28.23;10.97;;;;;;;-141.97;73.95;47447.97;5012428;28;20175;-86
2023/09/27 03:50:16;;;;;;;24.87;11.37;;;;;;;-141.97;73.80;47509.47;5011224;28;20268;-87
2023/09/27 03:52:42;;;;;;;21.33;11.03;;;;;;;-141.97;73.26;47576.75;5011130;28;20260;-87
2023/09/27 03:55:08;;;;;;;25.47;10.70;;;;;;;-141.97;73.26;47499.84;5026400;28;20170;-88
2023/09/27 03:57:34;;;;;;;21.13;10.67;;;;;;;-141.97;73.22;47695.91;5011206;28;20255;-88
2023/09/27 04:00:00;;;;;;;21.50;10.27;;;;;;;-141.97;74.47;47484.47;5011446;28;20250;-89
2023/09/27 04:02:25;;;;;;;20.47;10.80;;;;;;;-141.97;74.88;47653.63;5011509;28;20200;-86
2023/09/27 04:04:51;;;;;;;23.83;10.80;;;;;;;-141.97;74.02;47438.34;5010215;28;20232;-87
2023/09/27 04:07:18;;;;;;;22.33;11.27;;;;;;;-141.97;73.98;47647.84;5010276;28;20183;-87
2023/09/27 04:09:44;;;;;;;26.97;12.03;;;;;;;-141.97;73.66;47472.94;5009683;28;20184;-87
2023/09/27 04:12:11;;;;;;;22.73;11.77;;;;;;;-141.97;73.33;47438.34;5011078;28;20619;-88
2023/09/27 04:14:37;;;;;;;26.40;11.97;;;;;;;-141.97;73.42;47469.09;5010119;28;20170;-87
2023/09/27 04:17:03;;;;;;;26.47;12.13;;;;;;;-141.97;73.54;47515.22;5011128;28;20329;-86
2023/09/27 04:19:29;;;;;;;23.13;11.27;;;;;;;-141.97;74.26;47515.22;5010273;28;20235;-87
2023/09/27 04:21:54;;;;;;;31.47;12.83;;;;;;;-141.97;75.30;47422.97;5011263;28;20163;-88
2023/09/27 04:24:20;;;;;;;25.60;12.60;;;;;;;-141.97;76.79;47755.50;5019372;28;20254;-87
2023/09/27 04:26:45;;;;;;;33.00;13.30;;;;;;;-141.97;78.14;47511.38;5026028;28;20179;-86
2023/09/27 04:29:10;;;;;;;24.77;12.67;;;;;;;-141.97;78.35;47488.31;5029833;28;20646;-88
2023/09/27 04:31:36;;;;;;;26.63;12.07;;;;;;;-141.97;78.44;47486.41;5011452;28;20194;-87
2023/09/27 04:34:02;;;;;;;29.77;13.17;;;;;;;-141.97;77.99;47434.50;5010523;28;20198;-87
2023/09/27 04:36:28;;;;;;;30.13;13.40;;;;;;;-141.97;78.01;47563.28;5010375;28;20167;-87
2023/09/27 04:38:53;;;;;;;33.27;14.40;;;;;;;-141.97;78.37;47628.63;5011393;28;20538;-86
2023/09/27 04:41:20;;;;;;;29.93;14.00;;;;;;;-141.97;78.63;47619.03;5010339;28;20249;-87
2023/09/27 04:43:46;;;;;;;30.63;13.50;;;;;;;-141.97;78.42;47711.28;5012884;28;20159;-87
2023/09/27 04:46:15;;;;;;;23.43;12.97;;;;;;;-141.97;78.19;47592.13;5018613;28;20175;-87
2023/09/27 04:48:40;;;;;;;28.17;12.57;;;;;;;-141.97;78.13;47526.75;5025711;28;20175;-88
2023/09/27 04:51:05;;;;;;;27.77;12.67;;;;;;;-141.97;78.11;47557.53;5023274;28;20185;-88
2023/09/27 04:53:37;;;;;;;22.53;11.70;;;;;;;-141.97;77.76;47707.44;5027747;28;20199;-86
2023/09/27 04:56:11;;;;;;;25.70;11.93;;;;;;;-141.97;77.46;47540.22;5014680;28;20178;-87
2023/09/27 04:58:38;;;;;;;24.20;12.13;;;;;;;-141.97;77.15;47745.88;5012065;28;20249;-88
2023/09/27 05:01:04;;;;;;;20.40;11.57;;;;;;;-141.97;76.80;47611.34;5010582;28;20249;-87
2023/09/27 05:03:31;;;;;;;25.30;11.07;;;;;;;-141.97;76.88;47542.16;5011896;28;20155;-86
2023/09/27 05:05:56;;;;;;;21.37;11.77;;;;;;;-141.97;77.94;47497.94;5015678;28;20627;-86
2023/09/27 05:08:22;;;;;;;20.13;11.10;;;;;;;-141.97;76.88;47517.16;5014545;28;20167;-87
2023/09/27 05:10:47;;;;;;;24.70;11.10;;;;;;;-141.97;75.65;47695.91;5014732;28;20594;-88
2023/09/27 05:13:12;;;;;;;23.13;11.40;;;;;;;-141.97;74.49;47728.59;5014990;28;20187;-87
2023/09/27 05:15:38;;;;;;;21.67;11.37;;;;;;;-141.97;73.92;47580.59;5014784;28;20708;-88
2023/09/27 05:18:03;;;;;;;20.20;11.23;;;;;;;-141.97;73.50;47559.44;5012679;28;20230;-87
2023/09/27 05:20:29;;;;;;;23.90;10.43;;;;;;;-141.97;72.45;47572.91;5014551;28;20289;-87
2023/09/27 05:22:55;;;;;;;21.73;10.40;;;;;;;-141.97;74.04;47503.69;5018086;28;20615;-88
2023/09/27 05:25:20;;;;;;;18.40;10.27;;;;;;;-141.97;75.20;47496.00;5015412;28;20186;-87
2023/09/27 05:27:46;;;;;;;20.80;10.70;;;;;;;-141.97;75.78;47540.22;5031584;28;20182;-86
2023/09/27 05:30:11;;;;;;;22.37;10.77;;;;;;;-141.97;75.33;47440.28;5037048;28;20204;-87
2023/09/27 05:32:37;;;;;;;21.80;10.97;;;;;;;-141.97;75.22;47496.00;5035651;28;20201;-85
2023/09/27 05:35:04;;;;;;;25.83;10.60;;;;;;;-141.97;74.34;47549.84;5036580;28;20185;-82
2023/09/27 05:37:32;;;;;;;22.23;10.27;;;;;;;-141.97;72.91;47778.56;5026042;28;20232;-86
2023/09/27 05:39:58;;;;;;;21.00;10.60;;;;;;;-141.97;72.04;47715.13;5020050;28;20201;-86
2023/09/27 05:42:23;;;;;;;19.97;10.07;;;;;;;-141.97;70.41;47688.22;5031521;28;20615;-86
2023/09/27 05:44:49;;;;;;;19.30;9.33;;;;;;;-141.97;69.08;47467.19;5015802;28;20246;-87
2023/09/27 05:47:15;;;;;;;17.23;9.33;;;;;;;-141.97;69.83;47595.97;5015403;28;20202;-87
2023/09/27 05:49:41;;;;;;;18.60;9.27;;;;;;;-141.97;69.51;47499.84;5011294;28;20549;-88
2023/09/27 05:52:11;;;;;;;18.83;9.40;;;;;;;-141.97;70.38;47469.09;4994767;28;20195;-87
2023/09/27 05:54:37;;;;;;;20.13;9.27;;;;;;;-141.97;70.67;47599.81;4993084;28;20265;-86
2023/09/27 05:57:03;;;;;;;17.67;8.70;;;;;;;-141.97;69.99;47615.19;4996152;28;20541;-87
2023/09/27 05:59:28;;;;;;;19.90;9.27;;;;;;;-141.97;71.34;47644.00;5007147;28;20247;-87
2023/09/27 06:01:54;;;;;;;16.43;8.13;;;;;;;-141.97;70.41;47584.44;5008302;28;20218;-85
2023/09/27 06:04:19;;;;;;;16.63;8.30;;;;;;;-141.97;69.91;47578.66;5050483;28;20242;-85
2023/09/27 06:06:45;;;;;;;17.40;8.10;;;;;;;-141.97;68.86;47580.59;5048990;28;20221;-86
2023/09/27 06:09:11;;;;;;;16.63;8.23;;;;;;;-141.97;67.92;47622.88;5041646;28;20189;-88
2023/09/27 06:11:37;;;;;;;15.23;7.40;;;;;;;-141.97;66.86;47586.34;5034612;28;20561;-89
2023/09/27 06:14:05;;;;;;;16.98;7.68;;;;;;;-141.97;66.48;47553.69;5023560;28;20464;-92
2023/09/27 06:16:31;;;;;;;15.20;7.20;;;;;;;-141.97;66.84;47586.34;5012668;28;20634;-90
2023/09/27 06:18:56;;;;;;;16.43;7.27;;;;;;;-141.97;66.44;47768.94;5012325;28;20291;-89
2023/09/27 06:21:21;;;;;;;12.77;7.00;;;;;;;-141.97;65.97;47507.53;5010580;28;20741;-89
2023/09/27 06:23:47;;;;;;;12.10;6.60;;;;;;;-141.97;64.72;47684.38;5010067;28;20182;-91
2023/09/27 06:26:12;;;;;;;13.63;6.70;;;;;;;-141.97;64.37;47665.16;5009896;28;20280;-93
2023/09/27 06:28:38;;;;;;;14.53;6.77;;;;;;;-141.97;64.39;47405.69;5017280;28;20189;-90
2023/09/27 06:31:09;;;;;;;16.77;7.00;;;;;;;-141.97;64.48;47442.19;5019254;28;20186;-89
2023/09/27 06:33:39;;;;;;;14.67;7.13;;;;;;;-141.97;64.54;47440.28;5010715;28;20201;-91
2023/09/27 06:36:08;;;;;;;16.40;7.10;;;;;;;-141.97;64.01;47717.06;5048391;28;20200;-93
2023/09/27 06:38:33;;;;;;;12.47;6.60;;;;;;;-141.97;62.74;47386.47;5032086;28;20201;-92
2023/09/27 06:40:58;;;;;;;15.30;6.87;;;;;;;-141.97;63.06;47546.00;5030838;28;20190;-92
2023/09/27 06:43:28;;;;;;;15.40;6.60;;;;;;;-141.97;61.99;47572.91;5012134;28;20245;-91
2023/09/27 06:45:53;;;;;;;14.87;6.90;;;;;;;-141.97;61.36;47447.97;5012325;28;20186;-91
2023/09/27 06:48:20;;;;;;;12.87;6.53;;;;;;;-141.97;61.88;47724.75;5029865;28;20167;-91
2023/09/27 06:50:46;;;;;;;19.87;6.90;;;;;;;-141.97;61.99;47534.44;5037084;28;20159;-89
2023/09/27 06:53:12;;;;;;;11.00;6.37;;;;;;;-141.97;61.49;47496.00;5033513;28;20233;-90
2023/09/27 06:55:39;;;;;;;20.80;7.20;;;;;;;-141.97;61.63;47357.63;5028209;28;20201;-90
2023/09/27 06:58:04;;;;;;;19.07;6.83;;;;;;;-141.97;60.28;47553.69;5019042;28;20250;-87
2023/09/27 07:00:30;;;;;;;19.83;7.83;;;;;;;-141.97;59.52;47732.44;5026717;28;20273;-91
2023/09/27 07:02:55;;;;;;;16.07;6.53;;;;;;;-141.97;59.22;47676.69;5017376;28;20651;-90
2023/09/27 07:05:21;;;;;;;15.80;6.40;;;;;;;-141.97;57.94;47398.00;5013643;28;20205;-89
2023/09/27 07:07:54;;;;;;;18.23;6.57;;;;;;;-141.97;57.14;47542.16;5011530;28;20185;-90
2023/09/27 07:10:20;;;;;;;12.70;6.27;;;;;;;-141.97;56.24;47384.53;5011397;28;20201;-90
2023/09/27 07:12:46;;;;;;;17.53;6.97;;;;;;;-141.97;56.26;47726.66;5012904;28;20187;-91
2023/09/27 07:15:13;;;;;;;17.97;6.57;;;;;;;-141.97;57.07;47444.13;5011680;28;20190;-90
2023/09/27 07:17:43;;;;;;;15.63;6.33;;;;;;;-141.97;56.04;47446.03;5011807;28;20219;-91
2023/09/27 07:22:48;;;;;;;12.83;5.57;;;;;;;-141.97;55.17;47499.84;5014580;28;20178;-90
2023/09/27 07:25:18;;;;;;;20.03;6.30;;;;;;;-141.97;55.64;47384.53;5013492;28;20179;-91
2023/09/27 07:27:43;;;;;;;15.83;6.30;;;;;;;-141.97;54.27;47422.97;5010730;28;20589;-90
2023/09/27 07:30:11;;;;;;;16.33;6.50;;;;;;;-141.97;53.46;47753.56;5014182;28;20183;-90
2023/09/27 07:32:40;;;;;;;15.77;6.37;;;;;;;-141.97;52.64;47651.69;5012337;28;20205;-93
2023/09/27 07:35:10;;;;;;;15.37;6.23;;;;;;;-141.97;51.25;47380.69;5011471;28;20186;-91
2023/09/27 07:37:39;;;;;;;12.90;6.47;;;;;;;-141.97;51.82;47374.94;5012009;28;20200;-91
2023/09/27 07:40:11;;;;;;;15.27;7.50;;;;;;;-141.97;51.53;47344.19;5011387;28;20174;-91
2023/09/27 07:42:42;;;;;;;15.57;6.10;;;;;;;-141.97;51.84;47546.00;5010954;28;20159;-90
2023/09/27 07:45:09;;;;;;;15.67;6.00;;;;;;;-141.97;52.36;47542.16;5011059;28;20630;-90
2023/09/27 07:47:34;;;;;;;12.33;6.27;;;;;;;-141.97;52.00;47549.84;5011426;28;20166;-91
2023/09/27 07:50:00;;;;;;;15.37;6.00;;;;;;;-141.97;52.10;47265.38;5010734;28;20175;-89
2023/09/27 07:52:25;;;;;;;13.57;6.40;;;;;;;-141.97;52.11;47542.16;5011009;28;20194;-90
2023/09/27 07:54:51;;;;;;;12.30;6.47;;;;;;;-141.97;51.21;47488.31;5010694;28;20186;-92
2023/09/27 07:57:17;;;;;;;11.40;6.47;;;;;;;-141.97;51.25;47549.84;5011223;28;20223;-92
2023/09/27 07:59:43;;;;;;;11.90;6.13;;;;;;;-141.97;51.22;47492.16;5011621;28;20253;-92
2023/09/27 08:02:09;;;;;;;16.13;6.60;;;;;;;-141.97;50.19;47434.50;5010818;28;20159;-92
2023/09/27 08:04:39;;;;;;;12.53;5.93;;;;;;;-141.97;49.92;47595.97;5027082;28;20179;-92
2023/09/27 08:07:04;;;;;;;15.13;6.27;;;;;;;-141.97;48.53;47663.22;5010700;28;20643;-92
2023/09/27 08:09:30;;;;;;;13.50;6.13;;;;;;;-141.97;47.66;47346.09;5011845;28;20166;-92
2023/09/27 08:11:55;;;;;;;13.33;6.10;;;;;;;-141.97;47.14;47665.16;5010576;28;20166;-91
2023/09/27 08:14:21;;;;;;;15.47;6.87;;;;;;;-141.97;47.20;47755.50;5010184;28;20540;-91
2023/09/27 08:16:47;;;;;;;12.10;6.13;;;;;;;-141.97;47.11;47484.47;5013419;28;20637;-91
2023/09/27 08:19:12;;;;;;;10.43;6.07;;;;;;;-141.97;46.51;47407.59;5024278;28;20280;-92
2023/09/27 08:21:38;;;;;;;14.10;6.37;;;;;;;-141.97;44.57;47642.09;5039519;28;20242;-92
2023/09/27 08:24:03;;;;;;;14.67;6.70;;;;;;;-141.97;44.47;47417.22;5012779;28;20269;-91
2023/09/27 08:26:29;;;;;;;14.20;6.43;;;;;;;-141.97;43.65;47373.00;5013460;28;20198;-92
2023/09/27 08:28:54;;;;;;;16.48;6.20;;;;;;;-141.97;43.45;47496.00;5013296;28;20240;-91
2023/09/27 08:31:22;;;;;;;10.77;5.93;;;;;;;-141.97;42.43;47496.00;5014268;28;20188;-90
2023/09/27 08:33:48;;;;;;;15.43;6.38;;;;;;;-141.97;41.92;47694.00;5007697;28;20240;-92
2023/09/27 08:36:13;;;;;;;14.00;6.40;;;;;;;-141.97;41.85;47474.88;5011134;28;20186;-91
2023/09/27 08:38:39;;;;;;;13.80;6.32;;;;;;;-141.97;42.42;47476.78;5029140;28;20186;-91
2023/09/27 08:41:04;;;;;;;11.50;6.00;;;;;;;-141.97;43.81;47411.44;5014980;28;20214;-90
2023/09/27 08:43:32;;;;;;;12.23;5.97;;;;;;;-141.97;41.88;47398.00;5014157;28;20183;-91
2023/09/27 08:45:59;;;;;;;10.65;6.07;;;;;;;-141.97;41.53;47255.78;5014038;28;20180;-91
2023/09/27 08:48:25;;;;;;;12.75;5.82;;;;;;;-141.97;40.55;47457.56;5014330;28;20548;-91
2023/09/27 08:50:51;;;;;;;10.75;6.00;;;;;;;-141.97;41.27;47296.13;5031279;28;20216;-92
2023/09/27 08:53:17;;;;;;;15.90;5.68;;;;;;;-141.97;41.96;47330.72;5014643;28;20196;-91
2023/09/27 08:55:51;;;;;;;11.48;6.10;;;;;;;-141.97;42.15;47446.03;5015613;28;20246;-91
2023/09/27 08:58:18;;;;;;;15.85;6.07;;;;;;;-141.97;42.11;47382.63;5014313;28;20204;-91
2023/09/27 09:00:44;;;;;;;14.60;6.30;;;;;;;-141.97;41.61;47709.38;5014510;28;20229;-86
2023/09/27 09:03:10;;;;;;;10.50;5.93;;;;;;;-141.97;41.26;47453.72;5016668;28;20158;-87
2023/09/27 09:05:37;;;;;;;13.07;6.22;;;;;;;-141.97;41.74;47496.00;5023850;28;20218;-88
2023/09/27 09:08:07;;;;;;;12.52;6.35;;;;;;;-141.97;41.53;47465.25;5013852;28;20696;-87
2023/09/27 09:10:33;;;;;;;16.98;6.13;;;;;;;-141.97;40.43;47526.75;5043633;28;20185;-84
2023/09/27 09:13:03;;;;;;;13.63;6.03;;;;;;;-141.97;39.54;47303.81;5034813;28;20225;-84
2023/09/27 09:15:40;;;;;;;12.18;5.97;;;;;;;-141.97;38.71;47615.19;5032755;28;20171;-85
2023/09/27 09:18:10;;;;;;;9.52;5.60;;;;;;;-141.97;38.70;47669.00;5017088;28;20325;-87
2023/09/27 09:20:49;;;;;;;11.18;5.75;;;;;;;-141.97;38.29;47457.56;5014857;28;20178;-87
2023/09/27 09:23:28;;;;;;;8.95;5.60;;;;;;;-141.97;37.85;47467.19;5015084;28;20158;-87
2023/09/27 09:25:56;;;;;;;11.27;5.82;;;;;;;-141.97;37.60;47488.31;5014113;28;20175;-87
2023/09/27 09:28:22;;;;;;;14.30;5.88;;;;;;;-141.97;37.28;47419.13;5026149;28;20181;-87
2023/09/27 09:30:47;;;;;;;13.85;5.85;;;;;;;-141.97;37.64;47265.38;5031322;28;20169;-86
2023/09/27 09:33:20;;;;;;;12.77;5.82;;;;;;;-141.97;37.53;47434.50;5002893;28;20238;-89
2023/09/27 09:35:46;;;;;;;13.10;5.88;;;;;;;-141.97;36.73;47619.03;5012911;28;20198;-86
2023/09/27 09:38:12;;;;;;;14.35;6.00;;;;;;;-141.97;36.82;47413.38;5014124;28;20374;-86
2023/09/27 09:40:58;;;;;;;10.93;6.00;;;;;;;-141.97;37.27;47476.78;5012588;28;20189;-88
2023/09/27 09:43:35;;;;;;;13.35;6.00;;;;;;;-141.97;37.60;47442.19;5013690;28;20182;-86
2023/09/27 09:46:03;;;;;;;10.85;6.38;;;;;;;-141.97;38.00;47426.81;5020260;28;20234;-87
2023/09/27 09:48:30;;;;;;;13.32;6.03;;;;;;;-141.97;37.86;47709.38;5023478;28;20225;-87
2023/09/27 09:51:06;;;;;;;13.30;5.85;;;;;;;-141.97;37.91;47469.09;5020016;28;20169;-89
2023/09/27 09:53:40;;;;;;;13.32;6.05;;;;;;;-141.97;37.07;47440.28;5036016;28;20228;-87
2023/09/27 09:56:10;;;;;;;20.45;9.20;;;;;;;-141.97;36.89;47428.75;5021496;28;20162;-87
2023/09/27 09:58:44;;;;;;;9.20;5.93;;;;;;;-141.97;36.32;47338.41;5015297;28;20189;-86
2023/09/27 10:01:18;;;;;;;15.70;6.40;;;;;;;-141.97;37.16;47419.13;5014500;28;20172;-86
2023/09/27 10:03:47;;;;;;;12.80;5.53;;;;;;;-141.97;37.22;47678.63;5012381;28;20306;-86
2023/09/27 10:06:17;;;;;;;10.52;5.80;;;;;;;-141.97;37.02;47432.59;5013220;28;20158;-86
2023/09/27 10:08:45;;;;;;;15.65;6.47;;;;;;;-141.97;36.47;47342.25;5028220;28;20198;-87
2023/09/27 10:11:11;;;;;;;11.23;6.00;;;;;;;-141.97;36.13;47284.59;5012413;28;20178;-86
2023/09/27 10:13:39;;;;;;;11.90;6.07;;;;;;;-141.97;35.04;47376.84;5013204;28;20193;-87
2023/09/27 10:16:05;;;;;;;11.18;6.65;;;;;;;-141.97;34.86;47390.31;5012600;28;20249;-87
2023/09/27 10:18:38;;;;;;;12.32;5.50;;;;;;;-141.97;34.25;47417.22;5012568;28;20735;-87
2023/09/27 10:21:08;;;;;;;10.18;5.25;;;;;;;-141.97;34.47;47426.81;5010986;28;20193;-87
2023/09/27 10:23:46;;;;;;;13.38;5.75;;;;;;;-141.97;34.42;47380.69;5018266;28;20170;-87
2023/09/27 10:26:27;;;;;;;13.60;5.65;;;;;;;-141.97;34.04;47398.00;5021882;28;20189;-87
2023/09/27 10:29:06;;;;;;;8.30;5.53;;;;;;;-141.97;34.49;47346.09;5019918;28;20252;-87
2023/09/27 10:31:39;;;;;;;13.30;6.20;;;;;;;-141.97;35.08;47407.59;5020086;28;20248;-86
2023/09/27 10:34:26;;;;;;;18.52;6.20;;;;;;;-141.97;35.61;47415.28;5006204;28;20626;-87
2023/09/27 10:36:55;;;;;;;10.75;5.53;;;;;;;-141.97;34.91;47361.47;5012411;28;20166;-86
2023/09/27 10:39:21;;;;;;;10.88;5.90;;;;;;;-141.97;34.62;47396.06;5027731;28;20205;-88
2023/09/27 10:41:50;;;;;;;11.68;5.65;;;;;;;-141.97;34.35;47367.25;5010883;28;20611;-86
2023/09/27 10:44:33;;;;;;;15.38;5.95;;;;;;;-141.97;34.29;47386.47;5012838;28;20184;-86
2023/09/27 10:47:01;;;;;;;12.02;5.82;;;;;;;-141.97;34.13;47349.94;5013928;28;20165;-85
2023/09/27 10:49:33;;;;;;;15.05;6.20;;;;;;;-141.97;34.62;47417.22;5013467;28;20192;-86
2023/09/27 10:51:59;;;;;;;9.05;5.72;;;;;;;-141.97;34.97;47348.03;5013163;28;20596;-85
2023/09/27 10:54:27;;;;;;;13.52;5.88;;;;;;;-141.97;33.84;47338.41;5012497;28;20249;-85
2023/09/27 10:56:55;;;;;;;13.45;5.80;;;;;;;-141.97;33.69;47403.75;5013685;28;20192;-86
2023/09/27 10:59:27;;;;;;;9.07;5.78;;;;;;;-141.97;33.64;47376.84;5031350;28;20301;-87
2023/09/27 11:01:54;;;;;;;15.50;6.07;;;;;;;-141.97;33.96;47405.69;5012906;28;20185;-85
2023/09/27 11:04:21;;;;;;;10.48;5.85;;;;;;;-141.97;33.69;47376.84;5011917;28;20173;-86
2023/09/27 11:06:46;;;;;;;13.80;5.90;;;;;;;-141.97;33.12;47280.75;5011512;28;20174;-86
2023/09/27 11:09:12;;;;;;;12.20;6.00;;;;;;;-141.97;32.97;47409.53;5009978;28;20215;-83